createdAt,value
2018-06-19T00:00:39.006Z,15.80
2018-06-19T00:03:06.059Z,15.82
2018-06-19T00:05:33.077Z,15.79
2018-06-19T00:08:01.367Z,15.83
2018-06-19T00:10:28.694Z,15.82
2018-06-19T00:12:56.859Z,15.80
2018-06-19T00:15:24.311Z,15.72
2018-06-19T00:17:55.573Z,15.78
2018-06-19T00:20:22.679Z,15.73
2018-06-19T00:22:49.718Z,15.71
2018-06-19T00:25:19.020Z,15.67
2018-06-19T00:27:46.876Z,15.58
2018-06-19T00:30:14.052Z,15.52
2018-06-19T00:32:42.114Z,15.46
2018-06-19T00:35:10.428Z,15.45
2018-06-19T00:37:38.385Z,15.38
2018-06-19T00:40:05.432Z,15.41
2018-06-19T00:42:32.449Z,15.34
2018-06-19T00:44:59.539Z,15.31
2018-06-19T00:47:26.554Z,15.26
2018-06-19T00:49:53.561Z,15.16
2018-06-19T00:52:20.557Z,15.15
2018-06-19T00:54:47.570Z,15.15
2018-06-19T00:57:14.793Z,15.14
2018-06-19T00:59:41.782Z,15.12
2018-06-19T01:02:08.931Z,15.06
2018-06-19T01:04:35.984Z,15.03
2018-06-19T01:07:03.097Z,15.05
2018-06-19T01:09:30.098Z,14.99
2018-06-19T01:11:57.128Z,14.96
2018-06-19T01:14:24.132Z,14.92
2018-06-19T01:16:51.181Z,14.96
2018-06-19T01:19:18.188Z,14.89
2018-06-19T01:21:45.242Z,14.85
2018-06-19T01:24:12.543Z,14.83
2018-06-19T01:26:39.673Z,14.83
2018-06-19T01:29:06.758Z,14.82
2018-06-19T01:31:33.991Z,14.83
2018-06-19T01:34:01.002Z,14.84
2018-06-19T01:36:28.040Z,14.79
2018-06-19T01:38:55.058Z,14.80
2018-06-19T01:41:22.084Z,14.84
2018-06-19T01:43:49.099Z,14.79
2018-06-19T01:46:16.421Z,14.82
2018-06-19T01:48:43.427Z,14.76
2018-06-19T01:51:10.446Z,14.73
2018-06-19T01:53:37.474Z,14.72
2018-06-19T01:56:04.497Z,14.67
2018-06-19T01:58:31.497Z,14.68
2018-06-19T02:00:58.533Z,14.61
2018-06-19T02:03:25.564Z,14.56
2018-06-19T02:05:52.858Z,14.54
2018-06-19T02:08:19.887Z,14.55
2018-06-19T02:10:46.882Z,14.53
2018-06-19T02:13:13.894Z,14.59
2018-06-19T02:15:40.994Z,14.55
2018-06-19T02:18:08.086Z,14.55
2018-06-19T02:20:35.102Z,14.53
2018-06-19T02:23:02.208Z,14.57
2018-06-19T02:25:29.227Z,14.56
2018-06-19T02:27:56.349Z,14.56
2018-06-19T02:30:23.366Z,14.59
2018-06-19T02:32:50.466Z,14.62
2018-06-19T02:35:17.489Z,14.57
2018-06-19T02:37:44.523Z,14.60
2018-06-19T02:40:11.533Z,14.64
2018-06-19T02:42:38.754Z,14.68
2018-06-19T02:45:05.822Z,14.74
2018-06-19T02:47:32.870Z,14.71
2018-06-19T02:49:59.916Z,14.71
2018-06-19T02:52:26.921Z,14.76
2018-06-19T02:54:53.935Z,14.73
2018-06-19T02:57:20.946Z,14.77
2018-06-19T02:59:47.937Z,14.78
2018-06-19T03:02:15.024Z,14.81
2018-06-19T03:04:42.037Z,14.80
2018-06-19T03:07:09.042Z,14.81
2018-06-19T03:09:36.054Z,14.84
2018-06-19T03:12:03.360Z,14.89
2018-06-19T03:14:30.385Z,14.89
2018-06-19T03:16:57.391Z,14.90
2018-06-19T03:19:24.436Z,14.91
2018-06-19T03:21:51.531Z,14.96
2018-06-19T03:24:18.532Z,14.96
2018-06-19T03:26:45.549Z,14.97
2018-06-19T03:29:12.820Z,14.98
2018-06-19T03:31:39.821Z,14.97
2018-06-19T03:34:06.855Z,15.04
2018-06-19T03:36:33.942Z,15.05
2018-06-19T03:39:01.040Z,15.06
2018-06-19T03:41:28.043Z,15.12
2018-06-19T03:43:55.077Z,15.15
2018-06-19T03:46:28.250Z,15.18
2018-06-19T03:48:55.318Z,15.21
2018-06-19T03:51:22.315Z,15.27
2018-06-19T03:53:49.310Z,15.28
2018-06-19T03:56:16.423Z,15.32
2018-06-19T03:58:43.506Z,15.31
2018-06-19T04:01:10.558Z,15.33
2018-06-19T04:03:37.663Z,15.35
2018-06-19T04:06:04.762Z,15.36
2018-06-19T04:08:31.770Z,15.38
2018-06-19T04:10:58.868Z,15.41
2018-06-19T04:13:25.974Z,15.42
2018-06-19T04:15:53.057Z,15.48
2018-06-19T04:18:20.090Z,15.48
2018-06-19T04:20:47.113Z,15.52
2018-06-19T04:23:14.194Z,15.53
2018-06-19T04:25:41.313Z,15.56
2018-06-19T04:28:08.394Z,15.55
2018-06-19T04:30:35.408Z,15.54
2018-06-19T04:33:02.455Z,15.59
2018-06-19T04:35:29.493Z,15.63
2018-06-19T04:37:56.594Z,15.68
2018-06-19T04:40:23.596Z,15.69
2018-06-19T04:42:50.650Z,15.72
2018-06-19T04:45:17.697Z,15.75
2018-06-19T04:47:44.787Z,15.79
2018-06-19T04:50:12.161Z,15.80
2018-06-19T04:52:39.180Z,15.79
2018-06-19T04:55:06.189Z,15.82
2018-06-19T04:57:33.216Z,15.85
2018-06-19T05:00:00.250Z,15.87
2018-06-19T05:02:27.259Z,15.92
2018-06-19T05:04:54.289Z,15.92
2018-06-19T05:07:21.337Z,15.94
2018-06-19T05:09:48.434Z,15.98
2018-06-19T05:12:15.514Z,15.98
2018-06-19T05:14:42.801Z,16.02
2018-06-19T05:17:09.845Z,16.01
2018-06-19T05:19:36.895Z,16.09
2018-06-19T05:22:03.927Z,16.12
2018-06-19T05:24:31.105Z,16.11
2018-06-19T05:26:58.106Z,16.14
2018-06-19T05:29:25.150Z,16.23
2018-06-19T05:31:52.177Z,16.26
2018-06-19T05:34:19.510Z,16.28
2018-06-19T05:36:46.542Z,16.32
2018-06-19T05:39:13.669Z,16.40
2018-06-19T05:41:40.699Z,16.38
2018-06-19T05:44:08.377Z,16.39
2018-06-19T05:46:35.874Z,16.45
2018-06-19T05:49:03.091Z,16.40
2018-06-19T05:51:30.146Z,16.43
2018-06-19T05:53:57.502Z,16.51
2018-06-19T05:56:24.514Z,16.49
2018-06-19T05:58:51.618Z,16.51
2018-06-19T06:01:18.639Z,16.58
2018-06-19T06:03:45.725Z,16.51
2018-06-19T06:06:12.750Z,16.54
2018-06-19T06:08:40.033Z,16.64
2018-06-19T06:11:07.867Z,16.67
2018-06-19T06:13:34.895Z,16.66
2018-06-19T06:16:01.934Z,16.67
2018-06-19T06:18:28.956Z,16.69
2018-06-19T06:20:56.049Z,16.76
2018-06-19T06:23:23.058Z,16.82
2018-06-19T06:25:50.225Z,16.94
2018-06-19T06:28:17.245Z,16.90
2018-06-19T06:30:44.261Z,17.07
2018-06-19T06:33:11.290Z,17.19
2018-06-19T06:35:38.311Z,17.07
2018-06-19T06:38:05.422Z,17.14
2018-06-19T06:40:32.443Z,17.19
2018-06-19T06:42:59.465Z,17.28
2018-06-19T06:45:26.522Z,17.49
2018-06-19T06:47:53.547Z,17.58
2018-06-19T06:50:20.636Z,17.66
2018-06-19T06:52:47.744Z,17.57
2018-06-19T06:55:14.859Z,17.62
2018-06-19T06:57:42.576Z,17.70
2018-06-19T07:00:09.800Z,17.80
2018-06-19T07:02:36.829Z,17.81
2018-06-19T07:05:03.897Z,17.94
2018-06-19T07:07:30.918Z,18.20
2018-06-19T07:09:57.989Z,18.29
2018-06-19T07:12:25.040Z,18.25
2018-06-19T07:14:52.087Z,18.25
2018-06-19T07:17:19.349Z,18.25
2018-06-19T07:19:46.579Z,18.19
2018-06-19T07:22:13.717Z,18.19
2018-06-19T07:24:40.763Z,18.05
2018-06-19T07:27:08.593Z,18.05
2018-06-19T07:29:36.055Z,18.03
2018-06-19T07:32:03.157Z,18.05
2018-06-19T07:34:30.282Z,17.96
2018-06-19T07:36:57.357Z,17.89
2018-06-19T07:39:24.390Z,17.93
2018-06-19T07:41:51.425Z,17.74
2018-06-19T07:44:18.502Z,17.89
2018-06-19T07:46:45.533Z,17.86
2018-06-19T07:49:12.590Z,18.00
2018-06-19T07:51:39.634Z,18.11
2018-06-19T07:54:06.689Z,18.25
2018-06-19T07:56:33.958Z,18.28
2018-06-19T07:59:01.099Z,18.30
2018-06-19T08:01:28.147Z,18.21
2018-06-19T08:03:55.202Z,18.20
2018-06-19T08:06:22.350Z,18.24
2018-06-19T08:08:49.418Z,18.20
2018-06-19T08:11:16.477Z,18.21
2018-06-19T08:13:43.493Z,18.23
2018-06-19T08:16:10.542Z,18.24
2018-06-19T08:18:37.652Z,18.37
2018-06-19T08:21:04.866Z,18.34
2018-06-19T08:23:31.909Z,18.32
2018-06-19T08:25:58.955Z,18.50
2018-06-19T08:28:26.011Z,18.62
2018-06-19T08:30:53.062Z,18.75
2018-06-19T08:33:20.134Z,18.92
2018-06-19T08:35:47.178Z,18.87
2018-06-19T08:38:14.241Z,18.63
2018-06-19T08:40:41.294Z,18.53
2018-06-19T08:43:08.323Z,18.60
2018-06-19T08:45:35.393Z,18.49
2018-06-19T08:48:02.506Z,18.51
2018-06-19T08:50:29.557Z,18.36
2018-06-19T08:52:56.637Z,18.34
2018-06-19T08:55:24.119Z,18.22
2018-06-19T08:57:51.164Z,18.23
2018-06-19T09:00:18.319Z,18.17
2018-06-19T09:02:45.565Z,17.92
2018-06-19T09:05:12.639Z,17.85
2018-06-19T09:07:39.707Z,17.66
2018-06-19T09:10:06.786Z,17.45
2018-06-19T09:12:33.826Z,17.47
2018-06-19T09:15:00.879Z,17.34
2018-06-19T09:17:27.930Z,17.38
2018-06-19T09:19:55.007Z,17.27
2018-06-19T09:22:22.043Z,17.35
2018-06-19T09:24:49.168Z,17.38
2018-06-19T09:27:16.242Z,17.46
2018-06-19T09:29:43.302Z,17.39
2018-06-19T09:32:10.383Z,17.47
2018-06-19T09:34:37.429Z,17.29
2018-06-19T09:37:04.483Z,17.20
2018-06-19T09:39:31.555Z,17.23
2018-06-19T09:41:58.684Z,17.21
2018-06-19T09:44:25.893Z,17.37
2018-06-19T09:46:52.964Z,17.27
2018-06-19T09:49:20.030Z,17.27
2018-06-19T09:51:47.169Z,17.22
2018-06-19T09:54:14.206Z,17.27
2018-06-19T09:56:41.285Z,17.44
2018-06-19T09:59:08.444Z,17.43
2018-06-19T10:01:35.455Z,17.57
2018-06-19T10:04:02.621Z,17.44
2018-06-19T10:06:29.783Z,17.64
2018-06-19T10:08:56.814Z,17.73
2018-06-19T10:11:23.904Z,17.55
2018-06-19T10:13:50.967Z,17.50
2018-06-19T10:16:18.713Z,17.53
2018-06-19T10:18:45.738Z,17.43
2018-06-19T10:21:12.810Z,17.54
2018-06-19T10:23:39.863Z,17.45
2018-06-19T10:26:06.931Z,17.59
2018-06-19T10:28:34.056Z,17.64
2018-06-19T10:31:01.057Z,17.90
2018-06-19T10:33:28.121Z,18.22
2018-06-19T10:35:55.153Z,18.35
2018-06-19T10:38:22.306Z,18.36
2018-06-19T10:40:49.375Z,18.29
2018-06-19T10:43:16.443Z,18.29
2018-06-19T10:45:43.528Z,18.19
2018-06-19T10:48:10.633Z,18.21
2018-06-19T10:50:37.723Z,18.38
2018-06-19T10:53:04.773Z,18.36
2018-06-19T10:55:31.885Z,18.40
2018-06-19T10:57:58.901Z,18.40
2018-06-19T11:00:27.969Z,18.69
2018-06-19T11:02:56.876Z,19.27
2018-06-19T11:05:28.265Z,19.52
2018-06-19T11:08:02.761Z,19.80
2018-06-19T11:10:30.509Z,19.60
2018-06-19T11:13:00.260Z,19.63
2018-06-19T11:15:27.511Z,19.74
2018-06-19T11:17:54.579Z,20.09
2018-06-19T11:20:21.869Z,20.20
2018-06-19T11:22:49.009Z,20.45
2018-06-19T11:25:16.374Z,20.78
2018-06-19T11:27:43.540Z,20.70
2018-06-19T11:30:11.029Z,20.59
2018-06-19T11:32:38.306Z,20.61
2018-06-19T11:35:05.439Z,20.44
2018-06-19T11:37:32.552Z,20.44
2018-06-19T11:39:59.650Z,20.24
2018-06-19T11:42:27.147Z,20.17
2018-06-19T11:44:54.226Z,20.09
2018-06-19T11:47:21.335Z,20.01
2018-06-19T11:49:48.544Z,20.06
2018-06-19T11:52:15.632Z,20.02
2018-06-19T11:54:42.802Z,19.97
2018-06-19T11:57:09.899Z,19.81
2018-06-19T11:59:37.026Z,19.85
2018-06-19T12:02:04.126Z,19.77
2018-06-19T12:04:31.225Z,19.73
2018-06-19T12:06:58.357Z,19.84
2018-06-19T12:09:25.518Z,19.97
2018-06-19T12:11:52.988Z,20.07
2018-06-19T12:14:20.318Z,20.00
2018-06-19T12:16:47.505Z,20.01
2018-06-19T12:19:14.649Z,20.01
2018-06-19T12:21:41.728Z,20.19
2018-06-19T12:24:08.863Z,20.35
2018-06-19T12:26:35.973Z,20.38
2018-06-19T12:29:03.307Z,20.21
2018-06-19T12:31:30.504Z,20.05
2018-06-19T12:33:57.957Z,20.07
2018-06-19T12:36:25.078Z,19.92
2018-06-19T12:38:52.343Z,20.01
2018-06-19T12:41:19.434Z,20.06
2018-06-19T12:43:46.601Z,20.04
2018-06-19T12:46:13.768Z,19.99
2018-06-19T12:48:40.977Z,20.08
2018-06-19T12:51:45.547Z,20.15
2018-06-19T12:54:53.401Z,20.05
2018-06-19T12:57:20.431Z,19.94
2018-06-19T12:59:47.703Z,19.97
2018-06-19T13:02:14.787Z,20.00
2018-06-19T13:04:53.468Z,19.92
2018-06-19T13:07:20.500Z,19.95
2018-06-19T13:09:47.936Z,19.91
2018-06-19T13:12:26.732Z,19.93
2018-06-19T13:14:53.919Z,20.03
2018-06-19T13:17:32.391Z,20.02
2018-06-19T13:20:11.004Z,20.23
2018-06-19T13:22:38.134Z,20.26
2018-06-19T13:25:05.210Z,20.42
2018-06-19T13:27:32.551Z,20.50
2018-06-19T13:30:11.307Z,20.65
2018-06-19T13:32:39.453Z,20.76
2018-06-19T13:35:06.581Z,20.94
2018-06-19T13:37:33.976Z,21.35
2018-06-19T13:41:26.107Z,21.23
2018-06-19T13:44:14.964Z,20.86
2018-06-19T13:46:42.101Z,21.01
2018-06-19T13:49:09.181Z,21.10
2018-06-19T13:51:36.305Z,21.02
2018-06-19T13:54:03.835Z,21.36
2018-06-19T13:57:41.432Z,21.70
2018-06-19T14:00:11.804Z,21.62
2018-06-19T14:02:38.921Z,21.13
2018-06-19T14:05:06.886Z,21.10
2018-06-19T14:07:40.560Z,20.73
2018-06-19T14:10:24.817Z,20.39
2018-06-19T14:12:59.617Z,20.45
2018-06-19T14:15:28.117Z,20.45
2018-06-19T14:17:55.458Z,20.46
2018-06-19T14:20:22.814Z,20.54
2018-06-19T14:22:49.999Z,20.53
2018-06-19T14:25:17.709Z,20.61
2018-06-19T14:27:45.049Z,20.70
2018-06-19T14:30:12.503Z,20.77
2018-06-19T14:32:39.728Z,20.45
2018-06-19T14:35:06.841Z,20.31
2018-06-19T14:37:33.977Z,20.25
2018-06-19T14:40:01.152Z,20.10
2018-06-19T14:42:28.190Z,19.94
2018-06-19T14:44:55.685Z,20.06
2018-06-19T14:47:22.763Z,20.15
2018-06-19T14:49:50.110Z,20.35
2018-06-19T14:52:17.191Z,20.29
2018-06-19T14:54:44.405Z,20.36
2018-06-19T14:57:11.590Z,20.49
2018-06-19T14:59:38.698Z,20.47
2018-06-19T15:02:06.203Z,20.25
2018-06-19T15:04:33.348Z,20.29
2018-06-19T15:07:00.653Z,20.27
2018-06-19T15:09:27.832Z,20.25
2018-06-19T15:11:55.148Z,20.29
2018-06-19T15:14:22.628Z,20.34
2018-06-19T15:16:49.884Z,20.13
2018-06-19T15:19:17.272Z,19.94
2018-06-19T15:21:44.396Z,19.89
2018-06-19T15:24:11.953Z,19.85
2018-06-19T15:26:38.929Z,20.48
2018-06-19T15:29:05.977Z,20.52
2018-06-19T15:31:32.981Z,20.71
2018-06-19T15:34:00.081Z,20.94
2018-06-19T15:36:27.310Z,21.10
2018-06-19T15:38:54.317Z,21.13
2018-06-19T15:41:21.759Z,20.87
2018-06-19T15:43:48.876Z,20.80
2018-06-19T15:46:15.905Z,21.03
2018-06-19T15:48:43.195Z,21.11
2018-06-19T15:51:10.215Z,21.02
2018-06-19T15:53:37.305Z,21.12
2018-06-19T15:56:04.425Z,21.20
2018-06-19T15:58:32.800Z,21.54
2018-06-19T16:00:59.895Z,21.58
2018-06-19T16:03:27.012Z,21.52
2018-06-19T16:05:54.277Z,21.58
2018-06-19T16:08:21.679Z,21.71
2018-06-19T16:10:49.444Z,21.49
2018-06-19T16:13:16.758Z,21.76
2018-06-19T16:15:44.885Z,21.70
2018-06-19T16:18:12.962Z,21.36
2018-06-19T16:20:39.985Z,21.39
2018-06-19T16:23:07.340Z,21.66
2018-06-19T16:25:35.634Z,21.72
2018-06-19T16:28:02.762Z,21.81
2018-06-19T16:30:29.894Z,21.42
2018-06-19T16:32:57.170Z,21.68
2018-06-19T16:35:24.213Z,21.87
2018-06-19T16:37:51.369Z,21.40
2018-06-19T16:40:18.777Z,21.49
2018-06-19T16:42:46.422Z,21.21
2018-06-19T16:45:13.467Z,21.18
2018-06-19T16:47:40.534Z,21.33
2018-06-19T16:50:07.870Z,20.79
2018-06-19T16:52:35.623Z,20.92
2018-06-19T16:55:03.803Z,20.80
2018-06-19T16:57:31.255Z,20.58
2018-06-19T16:59:58.355Z,20.63
2018-06-19T17:02:25.398Z,20.38
2018-06-19T17:04:52.809Z,20.25
2018-06-19T17:07:20.187Z,20.35
2018-06-19T17:09:47.429Z,20.14
2018-06-19T17:12:14.614Z,20.07
2018-06-19T17:14:42.560Z,20.08
2018-06-19T17:17:10.688Z,20.04
2018-06-19T17:19:38.614Z,20.01
2018-06-19T17:22:07.472Z,19.73
2018-06-19T17:24:34.904Z,19.79
2018-06-19T17:27:02.133Z,19.78
2018-06-19T17:29:29.158Z,19.82
2018-06-19T17:31:56.474Z,19.71
2018-06-19T17:34:23.861Z,19.60
2018-06-19T17:36:51.233Z,19.73
2018-06-19T17:39:18.609Z,19.65
2018-06-19T17:41:45.632Z,19.54
2018-06-19T17:44:12.969Z,19.46
2018-06-19T17:46:40.050Z,19.26
2018-06-19T17:49:07.257Z,19.24
2018-06-19T17:51:34.302Z,19.21
2018-06-19T17:54:01.341Z,19.24
2018-06-19T17:56:28.477Z,19.24
2018-06-19T17:58:55.486Z,19.21
2018-06-19T18:01:23.636Z,19.03
2018-06-19T18:03:50.670Z,19.09
2018-06-19T18:06:17.761Z,19.03
2018-06-19T18:08:44.813Z,18.99
2018-06-19T18:11:12.013Z,18.84
2018-06-19T18:13:39.896Z,18.80
2018-06-19T18:16:07.077Z,18.76
2018-06-19T18:18:35.002Z,18.75
2018-06-19T18:21:02.150Z,18.72
2018-06-19T18:23:29.248Z,18.58
2018-06-19T18:25:56.285Z,18.57
2018-06-19T18:28:23.317Z,18.59
2018-06-19T18:30:51.003Z,18.48
2018-06-19T18:33:18.633Z,18.41
2018-06-19T18:35:45.670Z,18.40
2018-06-19T18:38:13.496Z,18.38
2018-06-19T18:40:40.651Z,18.37
2018-06-19T18:43:08.145Z,18.30
2018-06-19T18:45:35.566Z,18.32
2018-06-19T18:48:03.304Z,18.16
2018-06-19T18:50:30.426Z,18.06
2018-06-19T18:52:57.469Z,18.14
2018-06-19T18:55:24.541Z,18.08
2018-06-19T18:57:52.126Z,17.96
2018-06-19T19:00:19.208Z,17.95
2018-06-19T19:02:46.311Z,17.92
2018-06-19T19:05:13.455Z,17.99
2018-06-19T19:07:40.694Z,17.87
2018-06-19T19:10:13.481Z,17.84
2018-06-19T19:12:40.522Z,17.73
2018-06-19T19:15:13.373Z,17.76
2018-06-19T19:17:46.712Z,17.86
2018-06-19T19:20:15.605Z,17.71
2018-06-19T19:22:42.641Z,17.64
2018-06-19T19:25:10.382Z,17.53
2018-06-19T19:27:43.677Z,17.50
2018-06-19T19:30:10.882Z,17.33
2018-06-19T19:32:38.457Z,17.36
2018-06-19T19:35:05.860Z,17.19
2018-06-19T19:37:38.684Z,17.16
2018-06-19T19:40:05.746Z,17.16
2018-06-19T19:42:32.793Z,17.03
2018-06-19T19:44:59.810Z,16.87
2018-06-19T19:47:32.765Z,16.84
2018-06-19T19:49:59.977Z,16.86
2018-06-19T19:52:27.095Z,16.91
2018-06-19T19:54:54.183Z,16.71
2018-06-19T19:57:27.290Z,16.60
2018-06-19T19:59:54.405Z,16.55
2018-06-19T20:02:21.449Z,16.55
2018-06-19T20:04:48.478Z,16.47
2018-06-19T20:07:15.524Z,16.43
2018-06-19T20:09:42.540Z,16.39
2018-06-19T20:12:09.597Z,16.26
2018-06-19T20:14:37.053Z,16.22
2018-06-19T20:17:04.101Z,16.14
2018-06-19T20:19:31.581Z,16.11
2018-06-19T20:21:58.871Z,16.14
2018-06-19T20:24:26.057Z,15.97
2018-06-19T20:26:53.417Z,16.04
2018-06-19T20:29:20.425Z,15.96
2018-06-19T20:31:47.461Z,15.87
2018-06-19T20:34:15.072Z,15.82
2018-06-19T20:36:42.104Z,15.67
2018-06-19T20:39:09.893Z,15.71
2018-06-19T20:41:36.991Z,15.74
2018-06-19T20:44:05.286Z,15.75
2018-06-19T20:46:33.305Z,15.56
2018-06-19T20:49:00.362Z,15.59
2018-06-19T20:51:27.516Z,15.48
2018-06-19T20:53:54.911Z,15.44
2018-06-19T20:56:21.932Z,15.32
2018-06-19T20:58:49.200Z,15.37
2018-06-19T21:01:16.378Z,15.33
2018-06-19T21:03:43.513Z,15.30
2018-06-19T21:06:10.746Z,15.22
2018-06-19T21:08:41.557Z,15.15
2018-06-19T21:11:10.875Z,15.13
2018-06-19T21:13:38.288Z,15.26
2018-06-19T21:16:05.598Z,15.43
2018-06-19T21:18:32.860Z,15.29
2018-06-19T21:21:00.930Z,15.17
2018-06-19T21:23:28.132Z,15.08
2018-06-19T21:25:55.457Z,15.03
2018-06-19T21:28:22.607Z,14.94
2018-06-19T21:30:49.844Z,14.94
2018-06-19T21:33:17.839Z,14.80
2018-06-19T21:35:45.090Z,14.86
2018-06-19T21:38:13.059Z,14.79
2018-06-19T21:40:40.480Z,14.64
2018-06-19T21:43:07.641Z,14.68
2018-06-19T21:45:34.788Z,14.74
2018-06-19T21:48:02.232Z,14.70
2018-06-19T21:50:29.397Z,14.66
2018-06-19T21:52:57.085Z,14.56
2018-06-19T21:55:24.229Z,14.39
2018-06-19T21:57:51.480Z,14.33
2018-06-19T22:00:18.641Z,14.37
2018-06-19T22:02:46.419Z,14.41
2018-06-19T22:05:13.564Z,14.42
2018-06-19T22:07:41.205Z,14.30
2018-06-19T22:10:08.381Z,14.30
2018-06-19T22:12:35.919Z,14.28
2018-06-19T22:15:03.426Z,14.36
2018-06-19T22:17:30.822Z,14.35
2018-06-19T22:19:59.720Z,14.26
2018-06-19T22:22:27.327Z,14.18
2018-06-19T22:24:54.547Z,14.16
2018-06-19T22:27:22.104Z,14.08
2018-06-19T22:29:49.257Z,14.14
2018-06-19T22:32:16.412Z,14.16
2018-06-19T22:34:43.589Z,14.15
2018-06-19T22:37:10.764Z,14.10
2018-06-19T22:39:37.913Z,14.04
2018-06-19T22:42:05.392Z,13.98
2018-06-19T22:44:32.552Z,13.91
2018-06-19T22:46:59.701Z,13.91
2018-06-19T22:49:27.015Z,13.84
2018-06-19T22:51:54.174Z,13.75
2018-06-19T22:54:21.321Z,13.69
2018-06-19T22:56:48.492Z,13.94
2018-06-19T22:59:16.493Z,14.16
2018-06-19T23:01:43.633Z,13.94
2018-06-19T23:04:10.839Z,14.03
2018-06-19T23:06:38.185Z,14.09
2018-06-19T23:09:06.811Z,13.95
2018-06-19T23:11:33.975Z,13.68
2018-06-19T23:14:01.148Z,13.49
2018-06-19T23:16:28.382Z,13.45
2018-06-19T23:18:56.031Z,13.43
2018-06-19T23:21:23.192Z,13.29
2018-06-19T23:23:50.345Z,13.32
2018-06-19T23:26:17.488Z,13.34
2018-06-19T23:28:45.142Z,13.47
2018-06-19T23:31:12.289Z,13.43
2018-06-19T23:33:39.461Z,13.28
2018-06-19T23:36:07.264Z,13.33
2018-06-19T23:38:34.416Z,13.36
2018-06-19T23:41:01.659Z,13.29
2018-06-19T23:43:28.949Z,13.24
2018-06-19T23:45:56.113Z,13.27
2018-06-19T23:48:23.383Z,13.30
2018-06-19T23:50:50.792Z,13.31
2018-06-19T23:53:18.037Z,13.26
2018-06-19T23:55:45.226Z,13.20
2018-06-19T23:58:12.394Z,13.20
